createdAt,value
2022-09-03T00:00:01.642Z,20.31
2022-09-03T00:07:01.573Z,20.23
2022-09-03T00:14:01.952Z,20.09
2022-09-03T00:21:01.537Z,20.09
2022-09-03T00:28:01.894Z,19.97
2022-09-03T00:35:02.434Z,19.97
2022-09-03T00:42:01.491Z,19.88
2022-09-03T00:49:01.785Z,19.88
2022-09-03T00:56:01.577Z,19.69
2022-09-03T01:00:02.214Z,19.69
2022-09-03T01:07:01.888Z,19.7
2022-09-03T01:14:01.393Z,19.7
2022-09-03T01:21:02.055Z,19.66
2022-09-03T01:28:01.910Z,19.66
2022-09-03T01:35:01.613Z,19.55
2022-09-03T01:42:02.117Z,19.55
2022-09-03T01:49:01.608Z,19.49
2022-09-03T01:56:02.258Z,19.49
2022-09-03T02:00:01.874Z,19.41
2022-09-03T02:07:01.882Z,19.41
2022-09-03T02:14:01.927Z,19.4
2022-09-03T02:21:01.398Z,19.4
2022-09-03T02:28:01.846Z,19.25
2022-09-03T02:35:01.754Z,19.25
2022-09-03T02:42:02.278Z,19.12
2022-09-03T02:49:02.086Z,19.1
2022-09-03T02:56:02.277Z,19.1
2022-09-03T03:00:02.021Z,19.1
2022-09-03T03:07:02.296Z,18.99
2022-09-03T03:14:01.802Z,18.97
2022-09-03T03:21:02.124Z,18.97
2022-09-03T03:28:01.836Z,18.88
2022-09-03T03:35:02.433Z,18.88
2022-09-03T03:42:01.942Z,18.77
2022-09-03T03:49:01.462Z,18.77
2022-09-03T03:56:01.931Z,18.68
2022-09-03T04:00:02.666Z,18.68
2022-09-03T04:07:01.542Z,18.67
2022-09-03T04:14:02.201Z,18.67
2022-09-03T04:21:02.237Z,18.57
2022-09-03T04:28:01.705Z,18.57
2022-09-03T04:35:01.639Z,18.55
2022-09-03T04:42:01.871Z,18.55
2022-09-03T04:49:01.959Z,18.41
2022-09-03T04:56:01.770Z,18.41
2022-09-03T05:00:02.351Z,18.39
2022-09-03T05:07:01.909Z,18.39
2022-09-03T05:14:02.291Z,18.35
2022-09-03T05:21:02.143Z,18.35
2022-09-03T05:28:02.081Z,18.26
2022-09-03T05:35:01.997Z,18.26
2022-09-03T05:42:01.985Z,18.19
2022-09-03T05:49:02.384Z,18.17
2022-09-03T05:56:01.748Z,18.17
2022-09-03T06:00:02.428Z,18.17
2022-09-03T06:07:02.169Z,18.12
2022-09-03T06:14:01.553Z,18.16
2022-09-03T06:21:01.382Z,18.16
2022-09-03T06:28:01.613Z,18.33
2022-09-03T06:35:02.307Z,18.33
2022-09-03T06:42:02.014Z,18.39
2022-09-03T06:49:02.013Z,18.39
2022-09-03T06:56:02.325Z,18.54
2022-09-03T07:00:02.027Z,18.54
2022-09-03T07:07:01.922Z,18.64
2022-09-03T07:14:02.009Z,18.64
2022-09-03T07:21:01.777Z,18.8
2022-09-03T07:28:01.698Z,18.8
2022-09-03T07:35:01.770Z,18.93
2022-09-03T07:42:02.117Z,18.93
2022-09-03T07:49:01.948Z,19
2022-09-03T07:56:01.570Z,19
2022-09-03T08:00:02.187Z,19.18
2022-09-03T08:07:02.066Z,19.18
2022-09-03T08:14:02.028Z,19.23
2022-09-03T08:21:01.910Z,19.23
2022-09-03T08:28:02.225Z,19.39
2022-09-03T08:35:02.304Z,19.39
2022-09-03T08:42:02.227Z,19.45
2022-09-03T08:49:01.648Z,19.53
2022-09-03T08:56:02.226Z,19.53
2022-09-03T09:00:01.898Z,19.53
2022-09-03T09:07:02.205Z,19.62
2022-09-03T09:14:01.444Z,19.62
2022-09-03T09:21:01.434Z,19.74
2022-09-03T09:28:02.279Z,19.89
2022-09-03T09:35:02.033Z,19.89
2022-09-03T09:42:01.493Z,20.02
2022-09-03T09:49:02.237Z,20.02
2022-09-03T09:56:02.305Z,20.13
2022-09-03T10:00:01.945Z,20.13
2022-09-03T10:07:02.340Z,20.29
2022-09-03T10:14:02.105Z,20.29
2022-09-03T10:21:02.096Z,20.31
2022-09-03T10:28:02.223Z,20.31
2022-09-03T10:35:02.287Z,20.4
2022-09-03T10:42:01.808Z,20.4
2022-09-03T10:49:01.683Z,20.4
2022-09-03T10:56:01.618Z,20.4
2022-09-03T11:00:02.308Z,20.5
2022-09-03T11:07:02.263Z,20.5
2022-09-03T11:14:01.473Z,20.6
2022-09-03T11:21:01.533Z,20.6
2022-09-03T11:28:01.346Z,20.62
2022-09-03T11:35:01.818Z,20.62
2022-09-03T11:42:02.014Z,20.73
2022-09-03T11:49:01.873Z,20.75
2022-09-03T11:56:02.226Z,20.75
2022-09-03T12:00:01.881Z,20.75
2022-09-03T12:07:01.729Z,20.81
2022-09-03T12:14:01.411Z,20.81
2022-09-03T12:21:01.572Z,20.91
2022-09-03T12:28:02.091Z,21.01
2022-09-03T12:35:02.468Z,21.01
2022-09-03T12:42:01.582Z,21.01
2022-09-03T12:49:30.945Z,21.01
2022-09-03T12:56:01.705Z,21.31
2022-09-03T13:00:02.278Z,21.31
2022-09-03T13:07:02.109Z,21.35
2022-09-03T13:14:01.695Z,21.35
2022-09-03T13:21:02.238Z,21.68
2022-09-03T13:28:02.221Z,21.68
2022-09-03T13:35:02.253Z,21.77
2022-09-03T13:42:01.876Z,21.77
2022-09-03T13:49:02.027Z,21.89
2022-09-03T13:56:02.322Z,21.89
2022-09-03T14:00:02.133Z,22.07
2022-09-03T14:07:01.344Z,22.07
2022-09-03T14:14:02.084Z,22.22
2022-09-03T14:21:01.886Z,22.22
2022-09-03T14:28:02.032Z,22.25
2022-09-03T14:35:02.248Z,22.25
2022-09-03T14:42:02.066Z,22.39
2022-09-03T14:49:01.624Z,22.39
2022-09-03T14:56:01.935Z,22.39
2022-09-03T15:00:02.572Z,22.39
2022-09-03T15:07:01.794Z,22.39
2022-09-03T15:14:01.672Z,22.39
2022-09-03T15:21:01.698Z,22.44
2022-09-03T15:28:01.993Z,22.46
2022-09-03T15:35:01.801Z,22.46
2022-09-03T15:42:01.988Z,22.55
2022-09-03T15:49:02.341Z,22.55
2022-09-03T15:56:01.540Z,22.49
2022-09-03T16:00:02.101Z,22.49
2022-09-03T16:07:02.164Z,22.57
2022-09-03T16:14:02.335Z,22.57
2022-09-03T16:21:01.466Z,22.55
2022-09-03T16:28:09.021Z,22.55
2022-09-03T16:35:01.486Z,22.52
2022-09-03T16:42:01.795Z,22.52
2022-09-03T16:49:01.472Z,22.58
2022-09-03T16:56:02.309Z,22.58
2022-09-03T17:00:01.931Z,22.55
2022-09-03T17:07:01.914Z,22.55
2022-09-03T17:14:01.414Z,22.56
2022-09-03T17:21:02.170Z,22.56
2022-09-03T17:28:01.604Z,22.47
2022-09-03T17:35:01.563Z,22.47
2022-09-03T17:42:02.171Z,22.43
2022-09-03T17:49:02.101Z,22.43
2022-09-03T17:56:02.001Z,22.4
2022-09-03T18:00:01.605Z,22.4
2022-09-03T18:07:01.432Z,22.42
2022-09-03T18:14:01.415Z,22.42
2022-09-03T18:21:21.420Z,22.44
2022-09-03T18:28:02.289Z,22.36
2022-09-03T18:35:02.016Z,22.36
2022-09-03T18:42:01.938Z,22.27
2022-09-03T18:49:02.026Z,22.27
2022-09-03T18:56:01.925Z,22.19
2022-09-03T19:00:02.595Z,22.19
2022-09-03T19:07:02.023Z,22.1
2022-09-03T19:14:02.220Z,22.1
2022-09-03T19:21:01.424Z,21.86
2022-09-03T19:28:01.623Z,21.86
2022-09-03T19:35:01.521Z,21.62
2022-09-03T19:42:02.153Z,21.62
2022-09-03T19:49:01.575Z,21.42
2022-09-03T19:56:07.236Z,21.42
2022-09-03T20:00:02.264Z,21.4
2022-09-03T20:07:01.558Z,21.4
2022-09-03T20:14:01.816Z,21.2
2022-09-03T20:21:01.866Z,21.2
2022-09-03T20:28:02.289Z,21.14
2022-09-03T20:35:02.605Z,21.14
2022-09-03T20:42:02.275Z,20.95
2022-09-03T20:49:02.111Z,20.95
2022-09-03T20:56:01.625Z,20.83
2022-09-03T21:00:02.296Z,20.83
2022-09-03T21:07:01.551Z,20.72
2022-09-03T21:14:01.417Z,20.72
2022-09-03T21:21:02.183Z,20.58
2022-09-03T21:28:01.765Z,20.53
2022-09-03T21:35:02.310Z,20.53
2022-09-03T21:42:01.728Z,20.3
2022-09-03T21:49:01.883Z,20.3
2022-09-03T21:56:02.033Z,20.23
2022-09-03T22:00:01.630Z,20.23
2022-09-03T22:07:01.707Z,20.1
2022-09-03T22:14:02.204Z,20.1
2022-09-03T22:21:01.389Z,20.05
2022-09-03T22:28:02.120Z,20.05
2022-09-03T22:35:02.374Z,19.95
2022-09-03T22:42:02.073Z,19.95
2022-09-03T22:49:02.217Z,19.87
2022-09-03T22:56:02.088Z,19.87
2022-09-03T23:00:01.639Z,19.79
2022-09-03T23:07:02.399Z,19.79
2022-09-03T23:14:02.257Z,19.75
2022-09-03T23:21:01.645Z,19.75
2022-09-03T23:28:01.633Z,19.74
2022-09-03T23:35:01.868Z,19.74
2022-09-03T23:42:01.680Z,19.65
2022-09-03T23:49:01.665Z,19.65
2022-09-03T23:56:01.651Z,19.68
